sensor_id;sensor_type;location;lat;lon;timestamp;temperature;humidity
67759;SHT31;54562;47.620;18.786;2023-03-30T00:03:03;5.57;67.83
67759;SHT31;54562;47.620;18.786;2023-03-30T00:06:12;5.59;68.07
67759;SHT31;54562;47.620;18.786;2023-03-30T00:09:25;5.59;68.10
67759;SHT31;54562;47.620;18.786;2023-03-30T00:12:35;5.57;67.79
67759;SHT31;54562;47.620;18.786;2023-03-30T00:15:45;5.55;67.79
67759;SHT31;54562;47.620;18.786;2023-03-30T00:18:54;5.53;67.45
67759;SHT31;54562;47.620;18.786;2023-03-30T00:22:02;5.51;67.57
67759;SHT31;54562;47.620;18.786;2023-03-30T00:25:12;5.50;67.56
67759;SHT31;54562;47.620;18.786;2023-03-30T00:28:22;5.48;67.27
67759;SHT31;54562;47.620;18.786;2023-03-30T00:31:33;5.48;67.18
67759;SHT31;54562;47.620;18.786;2023-03-30T00:34:41;5.48;67.03
67759;SHT31;54562;47.620;18.786;2023-03-30T00:37:49;5.47;66.87
67759;SHT31;54562;47.620;18.786;2023-03-30T00:40:58;5.48;66.54
67759;SHT31;54562;47.620;18.786;2023-03-30T00:44:07;5.48;66.60
67759;SHT31;54562;47.620;18.786;2023-03-30T00:48:13;5.49;66.64
67759;SHT31;54562;47.620;18.786;2023-03-30T00:51:27;5.49;66.51
67759;SHT31;54562;47.620;18.786;2023-03-30T00:54:38;5.51;66.74
67759;SHT31;54562;47.620;18.786;2023-03-30T00:57:47;5.50;66.85
67759;SHT31;54562;47.620;18.786;2023-03-30T01:00:56;5.49;66.78
67759;SHT31;54562;47.620;18.786;2023-03-30T01:04:08;5.49;66.74
67759;SHT31;54562;47.620;18.786;2023-03-30T01:07:16;5.49;66.84
67759;SHT31;54562;47.620;18.786;2023-03-30T01:10:27;5.47;66.64
67759;SHT31;54562;47.620;18.786;2023-03-30T01:13:35;5.46;66.24
67759;SHT31;54562;47.620;18.786;2023-03-30T01:16:49;5.47;66.05
67759;SHT31;54562;47.620;18.786;2023-03-30T01:20:24;5.48;66.12
67759;SHT31;54562;47.620;18.786;2023-03-30T01:24:21;5.47;65.68
67759;SHT31;54562;47.620;18.786;2023-03-30T01:35:46;5.47;64.97
67759;SHT31;54562;47.620;18.786;2023-03-30T01:39:30;5.47;64.88
67759;SHT31;54562;47.620;18.786;2023-03-30T01:42:51;5.45;64.90
67759;SHT31;54562;47.620;18.786;2023-03-30T01:46:07;5.45;64.99
67759;SHT31;54562;47.620;18.786;2023-03-30T01:49:28;5.47;65.00
67759;SHT31;54562;47.620;18.786;2023-03-30T01:52:45;5.55;65.03
67759;SHT31;54562;47.620;18.786;2023-03-30T01:56:05;5.62;64.82
67759;SHT31;54562;47.620;18.786;2023-03-30T01:59:19;5.68;64.71
67759;SHT31;54562;47.620;18.786;2023-03-30T02:02:32;5.73;64.27
67759;SHT31;54562;47.620;18.786;2023-03-30T02:05:41;5.79;64.47
67759;SHT31;54562;47.620;18.786;2023-03-30T02:08:54;5.79;64.58
67759;SHT31;54562;47.620;18.786;2023-03-30T02:12:05;5.76;64.71
67759;SHT31;54562;47.620;18.786;2023-03-30T02:15:16;5.75;64.74
67759;SHT31;54562;47.620;18.786;2023-03-30T02:18:29;5.73;64.82
67759;SHT31;54562;47.620;18.786;2023-03-30T02:21:40;5.72;64.94
67759;SHT31;54562;47.620;18.786;2023-03-30T02:24:49;5.71;65.07
67759;SHT31;54562;47.620;18.786;2023-03-30T02:28:01;5.69;65.04
67759;SHT31;54562;47.620;18.786;2023-03-30T02:31:10;5.66;65.22
67759;SHT31;54562;47.620;18.786;2023-03-30T02:34:22;5.65;65.62
67759;SHT31;54562;47.620;18.786;2023-03-30T02:38:02;5.65;65.70
67759;SHT31;54562;47.620;18.786;2023-03-30T02:41:43;5.61;65.93
67759;SHT31;54562;47.620;18.786;2023-03-30T02:45:26;5.52;66.39
67759;SHT31;54562;47.620;18.786;2023-03-30T02:48:47;5.45;66.50
67759;SHT31;54562;47.620;18.786;2023-03-30T02:52:08;5.39;66.70
67759;SHT31;54562;47.620;18.786;2023-03-30T02:55:36;5.35;66.97
67759;SHT31;54562;47.620;18.786;2023-03-30T02:58:55;5.30;67.11
67759;SHT31;54562;47.620;18.786;2023-03-30T03:02:12;5.29;67.15
67759;SHT31;54562;47.620;18.786;2023-03-30T03:05:26;5.28;67.29
67759;SHT31;54562;47.620;18.786;2023-03-30T03:08:36;5.27;67.38
67759;SHT31;54562;47.620;18.786;2023-03-30T03:11:50;5.26;67.45
67759;SHT31;54562;47.620;18.786;2023-03-30T03:14:59;5.26;67.53
67759;SHT31;54562;47.620;18.786;2023-03-30T03:18:07;5.27;67.53
67759;SHT31;54562;47.620;18.786;2023-03-30T03:21:16;5.28;67.57
67759;SHT31;54562;47.620;18.786;2023-03-30T03:24:24;5.29;67.55
67759;SHT31;54562;47.620;18.786;2023-03-30T03:27:32;5.28;67.72
67759;SHT31;54562;47.620;18.786;2023-03-30T03:30:40;5.25;67.59
67759;SHT31;54562;47.620;18.786;2023-03-30T03:33:48;5.23;67.60
67759;SHT31;54562;47.620;18.786;2023-03-30T03:36:57;5.18;67.60
67759;SHT31;54562;47.620;18.786;2023-03-30T03:40:06;5.14;67.79
67759;SHT31;54562;47.620;18.786;2023-03-30T03:43:15;5.10;67.88
67759;SHT31;54562;47.620;18.786;2023-03-30T03:46:24;5.07;67.87
67759;SHT31;54562;47.620;18.786;2023-03-30T03:49:33;5.04;67.77
67759;SHT31;54562;47.620;18.786;2023-03-30T03:52:41;4.99;67.82
67759;SHT31;54562;47.620;18.786;2023-03-30T03:55:50;4.93;68.00
67759;SHT31;54562;47.620;18.786;2023-03-30T03:58:59;4.88;68.02
67759;SHT31;54562;47.620;18.786;2023-03-30T04:02:07;4.84;68.13
67759;SHT31;54562;47.620;18.786;2023-03-30T04:05:15;4.75;68.51
67759;SHT31;54562;47.620;18.786;2023-03-30T04:08:23;4.69;68.78
67759;SHT31;54562;47.620;18.786;2023-03-30T04:11:31;4.64;68.96
67759;SHT31;54562;47.620;18.786;2023-03-30T04:14:40;4.64;68.98
67759;SHT31;54562;47.620;18.786;2023-03-30T04:17:49;4.63;69.07
67759;SHT31;54562;47.620;18.786;2023-03-30T04:21:00;4.64;69.10
67759;SHT31;54562;47.620;18.786;2023-03-30T04:24:15;4.66;69.32
67759;SHT31;54562;47.620;18.786;2023-03-30T04:27:24;4.68;69.53
67759;SHT31;54562;47.620;18.786;2023-03-30T04:30:33;4.71;69.61
67759;SHT31;54562;47.620;18.786;2023-03-30T04:33:43;4.75;69.53
67759;SHT31;54562;47.620;18.786;2023-03-30T04:36:55;4.79;69.66
67759;SHT31;54562;47.620;18.786;2023-03-30T04:40:04;4.82;69.80
67759;SHT31;54562;47.620;18.786;2023-03-30T04:43:15;4.83;70.01
67759;SHT31;54562;47.620;18.786;2023-03-30T04:46:25;4.84;70.08
67759;SHT31;54562;47.620;18.786;2023-03-30T04:49:33;4.85;70.13
67759;SHT31;54562;47.620;18.786;2023-03-30T04:52:41;4.87;70.14
67759;SHT31;54562;47.620;18.786;2023-03-30T04:55:50;4.88;70.16
67759;SHT31;54562;47.620;18.786;2023-03-30T04:58:59;4.87;70.22
67759;SHT31;54562;47.620;18.786;2023-03-30T05:02:07;4.85;70.26
67759;SHT31;54562;47.620;18.786;2023-03-30T05:05:17;4.84;70.32
67759;SHT31;54562;47.620;18.786;2023-03-30T05:08:25;4.83;70.44
67759;SHT31;54562;47.620;18.786;2023-03-30T05:11:35;4.84;70.56
67759;SHT31;54562;47.620;18.786;2023-03-30T05:14:44;4.87;70.47
67759;SHT31;54562;47.620;18.786;2023-03-30T05:17:52;4.90;70.38
67759;SHT31;54562;47.620;18.786;2023-03-30T05:21:02;4.93;70.38
67759;SHT31;54562;47.620;18.786;2023-03-30T05:24:12;4.96;70.43
67759;SHT31;54562;47.620;18.786;2023-03-30T05:27:20;4.99;70.33
67759;SHT31;54562;47.620;18.786;2023-03-30T05:30:29;5.03;70.43
67759;SHT31;54562;47.620;18.786;2023-03-30T05:33:37;5.05;70.43
67759;SHT31;54562;47.620;18.786;2023-03-30T05:36:46;5.07;70.32
67759;SHT31;54562;47.620;18.786;2023-03-30T05:39:54;5.06;70.15
67759;SHT31;54562;47.620;18.786;2023-03-30T05:43:02;5.12;70.18
67759;SHT31;54562;47.620;18.786;2023-03-30T05:46:11;5.19;70.07
67759;SHT31;54562;47.620;18.786;2023-03-30T05:49:19;5.26;70.07
67759;SHT31;54562;47.620;18.786;2023-03-30T05:52:28;5.31;69.88
67759;SHT31;54562;47.620;18.786;2023-03-30T05:55:36;5.36;69.66
67759;SHT31;54562;47.620;18.786;2023-03-30T05:58:46;5.41;69.47
67759;SHT31;54562;47.620;18.786;2023-03-30T06:01:54;5.44;69.33
67759;SHT31;54562;47.620;18.786;2023-03-30T06:05:03;5.47;69.34
67759;SHT31;54562;47.620;18.786;2023-03-30T06:08:12;5.51;69.54
67759;SHT31;54562;47.620;18.786;2023-03-30T06:11:24;5.55;69.20
67759;SHT31;54562;47.620;18.786;2023-03-30T06:14:33;5.60;69.40
67759;SHT31;54562;47.620;18.786;2023-03-30T06:17:41;5.65;69.21
67759;SHT31;54562;47.620;18.786;2023-03-30T06:20:50;5.70;69.13
67759;SHT31;54562;47.620;18.786;2023-03-30T06:23:59;5.76;69.00
67759;SHT31;54562;47.620;18.786;2023-03-30T06:27:07;5.81;69.07
67759;SHT31;54562;47.620;18.786;2023-03-30T06:30:16;5.87;69.18
67759;SHT31;54562;47.620;18.786;2023-03-30T06:33:25;5.93;69.23
67759;SHT31;54562;47.620;18.786;2023-03-30T06:36:34;6.01;69.43
67759;SHT31;54562;47.620;18.786;2023-03-30T06:39:47;6.04;69.03
67759;SHT31;54562;47.620;18.786;2023-03-30T06:42:56;6.04;68.74
67759;SHT31;54562;47.620;18.786;2023-03-30T06:46:04;6.03;68.47
67759;SHT31;54562;47.620;18.786;2023-03-30T06:49:14;6.01;68.12
67759;SHT31;54562;47.620;18.786;2023-03-30T06:52:23;6.00;67.99
67759;SHT31;54562;47.620;18.786;2023-03-30T06:55:31;5.98;68.18
67759;SHT31;54562;47.620;18.786;2023-03-30T06:58:39;6.00;68.40
67759;SHT31;54562;47.620;18.786;2023-03-30T07:01:47;6.06;68.46
67759;SHT31;54562;47.620;18.786;2023-03-30T07:04:56;6.13;68.53
67759;SHT31;54562;47.620;18.786;2023-03-30T07:08:05;6.21;68.27
67759;SHT31;54562;47.620;18.786;2023-03-30T07:11:13;6.25;68.02
67759;SHT31;54562;47.620;18.786;2023-03-30T07:14:21;6.30;68.06
67759;SHT31;54562;47.620;18.786;2023-03-30T07:17:30;6.36;67.86
67759;SHT31;54562;47.620;18.786;2023-03-30T07:20:38;6.43;67.87
67759;SHT31;54562;47.620;18.786;2023-03-30T07:23:47;6.50;67.91
67759;SHT31;54562;47.620;18.786;2023-03-30T07:26:55;6.59;68.18
67759;SHT31;54562;47.620;18.786;2023-03-30T07:30:04;6.69;67.90
67759;SHT31;54562;47.620;18.786;2023-03-30T07:33:24;6.81;67.55
67759;SHT31;54562;47.620;18.786;2023-03-30T07:36:34;6.99;66.38
67759;SHT31;54562;47.620;18.786;2023-03-30T07:39:42;7.15;66.28
67759;SHT31;54562;47.620;18.786;2023-03-30T07:42:53;7.28;66.00
67759;SHT31;54562;47.620;18.786;2023-03-30T07:46:01;7.40;65.66
67759;SHT31;54562;47.620;18.786;2023-03-30T07:49:10;7.52;65.53
67759;SHT31;54562;47.620;18.786;2023-03-30T07:52:18;7.64;65.14
67759;SHT31;54562;47.620;18.786;2023-03-30T07:55:26;7.74;64.71
67759;SHT31;54562;47.620;18.786;2023-03-30T07:58:35;7.82;64.32
67759;SHT31;54562;47.620;18.786;2023-03-30T08:01:43;7.91;64.22
67759;SHT31;54562;47.620;18.786;2023-03-30T08:04:52;8.03;63.67
67759;SHT31;54562;47.620;18.786;2023-03-30T08:08:02;8.12;63.19
67759;SHT31;54562;47.620;18.786;2023-03-30T08:11:10;8.20;63.32
67759;SHT31;54562;47.620;18.786;2023-03-30T08:14:18;8.28;63.06
67759;SHT31;54562;47.620;18.786;2023-03-30T08:17:29;8.35;62.42
67759;SHT31;54562;47.620;18.786;2023-03-30T08:20:37;8.42;62.53
67759;SHT31;54562;47.620;18.786;2023-03-30T08:23:46;8.46;62.63
67759;SHT31;54562;47.620;18.786;2023-03-30T08:26:55;8.52;62.76
67759;SHT31;54562;47.620;18.786;2023-03-30T08:30:03;8.57;62.47
67759;SHT31;54562;47.620;18.786;2023-03-30T08:33:15;8.60;62.74
67759;SHT31;54562;47.620;18.786;2023-03-30T08:36:25;8.64;62.92
67759;SHT31;54562;47.620;18.786;2023-03-30T08:39:33;8.70;62.85
67759;SHT31;54562;47.620;18.786;2023-03-30T08:42:57;8.77;62.58
67759;SHT31;54562;47.620;18.786;2023-03-30T08:46:24;8.86;62.83
67759;SHT31;54562;47.620;18.786;2023-03-30T08:49:37;8.99;62.85
67759;SHT31;54562;47.620;18.786;2023-03-30T08:52:55;9.14;62.44
67759;SHT31;54562;47.620;18.786;2023-03-30T08:56:04;9.26;62.57
67759;SHT31;54562;47.620;18.786;2023-03-30T08:59:21;9.36;61.84
67759;SHT31;54562;47.620;18.786;2023-03-30T09:02:43;9.52;61.61
67759;SHT31;54562;47.620;18.786;2023-03-30T09:05:57;9.68;61.58
67759;SHT31;54562;47.620;18.786;2023-03-30T09:09:15;9.80;61.04
67759;SHT31;54562;47.620;18.786;2023-03-30T09:12:26;9.90;61.19
67759;SHT31;54562;47.620;18.786;2023-03-30T09:15:45;9.93;60.38
67759;SHT31;54562;47.620;18.786;2023-03-30T09:18:59;9.85;60.64
67759;SHT31;54562;47.620;18.786;2023-03-30T09:22:15;9.79;60.55
67759;SHT31;54562;47.620;18.786;2023-03-30T09:25:30;9.74;60.43
67759;SHT31;54562;47.620;18.786;2023-03-30T09:28:45;9.70;60.78
67759;SHT31;54562;47.620;18.786;2023-03-30T09:32:07;9.71;61.30
67759;SHT31;54562;47.620;18.786;2023-03-30T09:35:31;9.73;61.38
67759;SHT31;54562;47.620;18.786;2023-03-30T09:38:47;9.78;61.84
67759;SHT31;54562;47.620;18.786;2023-03-30T09:41:58;9.88;61.94
67759;SHT31;54562;47.620;18.786;2023-03-30T09:45:24;9.96;61.27
67759;SHT31;54562;47.620;18.786;2023-03-30T09:48:41;10.06;61.49
67759;SHT31;54562;47.620;18.786;2023-03-30T09:52:01;10.17;60.76
67759;SHT31;54562;47.620;18.786;2023-03-30T09:55:23;10.28;60.05
67759;SHT31;54562;47.620;18.786;2023-03-30T09:58:35;10.42;59.72
67759;SHT31;54562;47.620;18.786;2023-03-30T10:01:43;10.55;59.68
67759;SHT31;54562;47.620;18.786;2023-03-30T10:04:56;10.71;59.92
67759;SHT31;54562;47.620;18.786;2023-03-30T10:08:16;10.89;59.90
67759;SHT31;54562;47.620;18.786;2023-03-30T10:11:31;11.03;59.42
67759;SHT31;54562;47.620;18.786;2023-03-30T10:14:45;11.10;59.31
67759;SHT31;54562;47.620;18.786;2023-03-30T10:18:01;11.11;58.41
67759;SHT31;54562;47.620;18.786;2023-03-30T10:21:30;11.11;58.81
67759;SHT31;54562;47.620;18.786;2023-03-30T10:24:47;11.19;58.78
67759;SHT31;54562;47.620;18.786;2023-03-30T10:28:00;11.39;58.38
67759;SHT31;54562;47.620;18.786;2023-03-30T10:31:18;11.75;58.82
67759;SHT31;54562;47.620;18.786;2023-03-30T10:34:33;12.06;58.46
67759;SHT31;54562;47.620;18.786;2023-03-30T10:37:45;12.21;58.18
67759;SHT31;54562;47.620;18.786;2023-03-30T10:41:00;12.23;57.60
67759;SHT31;54562;47.620;18.786;2023-03-30T10:44:16;12.32;57.63
67759;SHT31;54562;47.620;18.786;2023-03-30T10:47:36;12.33;57.97
67759;SHT31;54562;47.620;18.786;2023-03-30T10:51:02;12.31;57.96
67759;SHT31;54562;47.620;18.786;2023-03-30T10:54:22;12.25;58.23
67759;SHT31;54562;47.620;18.786;2023-03-30T10:57:41;12.17;57.93
67759;SHT31;54562;47.620;18.786;2023-03-30T11:01:04;12.08;58.51
67759;SHT31;54562;47.620;18.786;2023-03-30T11:04:25;12.04;58.67
67759;SHT31;54562;47.620;18.786;2023-03-30T11:07:42;12.03;59.06
67759;SHT31;54562;47.620;18.786;2023-03-30T11:10:56;12.04;58.76
67759;SHT31;54562;47.620;18.786;2023-03-30T11:14:06;12.05;58.67
67759;SHT31;54562;47.620;18.786;2023-03-30T11:17:21;12.14;58.72
67759;SHT31;54562;47.620;18.786;2023-03-30T11:20:36;12.38;58.85
67759;SHT31;54562;47.620;18.786;2023-03-30T11:23:50;12.69;58.81
67759;SHT31;54562;47.620;18.786;2023-03-30T11:27:04;12.96;58.12
67759;SHT31;54562;47.620;18.786;2023-03-30T11:30:23;13.21;57.88
67759;SHT31;54562;47.620;18.786;2023-03-30T11:33:37;13.40;57.63
67759;SHT31;54562;47.620;18.786;2023-03-30T11:36:56;13.53;57.49
67759;SHT31;54562;47.620;18.786;2023-03-30T11:40:14;13.59;57.44
67759;SHT31;54562;47.620;18.786;2023-03-30T11:43:29;13.66;57.45
67759;SHT31;54562;47.620;18.786;2023-03-30T11:46:39;13.74;56.94
67759;SHT31;54562;47.620;18.786;2023-03-30T11:50:01;13.73;56.62
67759;SHT31;54562;47.620;18.786;2023-03-30T11:53:35;13.69;56.67
67759;SHT31;54562;47.620;18.786;2023-03-30T11:56:56;13.62;56.84
67759;SHT31;54562;47.620;18.786;2023-03-30T12:00:21;13.56;56.95
67759;SHT31;54562;47.620;18.786;2023-03-30T12:03:45;13.57;57.28
67759;SHT31;54562;47.620;18.786;2023-03-30T12:06:58;13.57;57.48
67759;SHT31;54562;47.620;18.786;2023-03-30T12:10:10;13.60;57.53
67759;SHT31;54562;47.620;18.786;2023-03-30T12:13:28;13.57;57.42
67759;SHT31;54562;47.620;18.786;2023-03-30T12:16:50;13.52;57.25
67759;SHT31;54562;47.620;18.786;2023-03-30T12:20:10;13.46;56.91
67759;SHT31;54562;47.620;18.786;2023-03-30T12:23:34;13.44;57.11
67759;SHT31;54562;47.620;18.786;2023-03-30T12:26:49;13.50;57.13
67759;SHT31;54562;47.620;18.786;2023-03-30T12:30:12;13.63;57.18
67759;SHT31;54562;47.620;18.786;2023-03-30T12:33:32;13.74;57.22
67759;SHT31;54562;47.620;18.786;2023-03-30T12:36:48;13.80;56.99
67759;SHT31;54562;47.620;18.786;2023-03-30T12:40:02;13.79;56.65
67759;SHT31;54562;47.620;18.786;2023-03-30T12:43:25;13.75;56.88
67759;SHT31;54562;47.620;18.786;2023-03-30T12:46:49;13.70;56.70
67759;SHT31;54562;47.620;18.786;2023-03-30T12:50:28;13.68;57.28
67759;SHT31;54562;47.620;18.786;2023-03-30T12:53:52;13.65;57.31
67759;SHT31;54562;47.620;18.786;2023-03-30T12:57:19;13.59;57.68
67759;SHT31;54562;47.620;18.786;2023-03-30T13:00:52;13.55;58.02
67759;SHT31;54562;47.620;18.786;2023-03-30T13:04:20;13.56;58.37
67759;SHT31;54562;47.620;18.786;2023-03-30T13:07:32;13.56;58.66
67759;SHT31;54562;47.620;18.786;2023-03-30T13:10:43;13.56;58.87
67759;SHT31;54562;47.620;18.786;2023-03-30T13:13:52;13.56;59.04
67759;SHT31;54562;47.620;18.786;2023-03-30T13:17:15;13.53;58.87
67759;SHT31;54562;47.620;18.786;2023-03-30T13:20:30;13.50;59.55
67759;SHT31;54562;47.620;18.786;2023-03-30T13:23:58;13.53;59.58
67759;SHT31;54562;47.620;18.786;2023-03-30T13:27:32;13.56;59.35
67759;SHT31;54562;47.620;18.786;2023-03-30T13:30:44;13.59;59.40
67759;SHT31;54562;47.620;18.786;2023-03-30T13:33:53;13.61;59.18
67759;SHT31;54562;47.620;18.786;2023-03-30T13:37:18;13.64;59.14
67759;SHT31;54562;47.620;18.786;2023-03-30T13:40:38;13.66;59.11
67759;SHT31;54562;47.620;18.786;2023-03-30T13:44:12;13.70;59.49
67759;SHT31;54562;47.620;18.786;2023-03-30T13:47:40;13.76;59.28
67759;SHT31;54562;47.620;18.786;2023-03-30T13:51:04;13.79;59.06
67759;SHT31;54562;47.620;18.786;2023-03-30T13:54:20;13.81;59.03
67759;SHT31;54562;47.620;18.786;2023-03-30T13:57:34;13.84;58.97
67759;SHT31;54562;47.620;18.786;2023-03-30T14:00:48;13.86;58.96
67759;SHT31;54562;47.620;18.786;2023-03-30T14:04:00;13.87;58.83
67759;SHT31;54562;47.620;18.786;2023-03-30T14:07:12;13.88;59.12
67759;SHT31;54562;47.620;18.786;2023-03-30T14:10:25;13.90;58.92
67759;SHT31;54562;47.620;18.786;2023-03-30T14:13:34;13.90;59.04
67759;SHT31;54562;47.620;18.786;2023-03-30T14:16:43;13.92;58.99
67759;SHT31;54562;47.620;18.786;2023-03-30T14:19:53;13.94;59.13
67759;SHT31;54562;47.620;18.786;2023-03-30T14:23:22;13.96;59.22
67759;SHT31;54562;47.620;18.786;2023-03-30T14:26:39;13.96;58.97
67759;SHT31;54562;47.620;18.786;2023-03-30T14:29:50;13.96;59.13
67759;SHT31;54562;47.620;18.786;2023-03-30T14:33:05;13.95;59.19
67759;SHT31;54562;47.620;18.786;2023-03-30T14:36:16;13.95;59.21
67759;SHT31;54562;47.620;18.786;2023-03-30T14:39:26;13.93;59.41
67759;SHT31;54562;47.620;18.786;2023-03-30T14:42:38;13.93;59.59
67759;SHT31;54562;47.620;18.786;2023-03-30T14:45:48;13.94;59.76
67759;SHT31;54562;47.620;18.786;2023-03-30T14:48:58;13.95;60.05
67759;SHT31;54562;47.620;18.786;2023-03-30T14:52:08;13.97;59.98
67759;SHT31;54562;47.620;18.786;2023-03-30T14:55:22;13.97;60.13
67759;SHT31;54562;47.620;18.786;2023-03-30T14:58:31;13.96;60.08
67759;SHT31;54562;47.620;18.786;2023-03-30T15:01:41;13.96;60.08
67759;SHT31;54562;47.620;18.786;2023-03-30T15:04:50;13.96;60.23
67759;SHT31;54562;47.620;18.786;2023-03-30T15:08:01;13.95;60.45
67759;SHT31;54562;47.620;18.786;2023-03-30T15:11:10;13.95;60.42
67759;SHT31;54562;47.620;18.786;2023-03-30T15:14:19;13.96;60.52
67759;SHT31;54562;47.620;18.786;2023-03-30T15:17:29;13.95;60.72
67759;SHT31;54562;47.620;18.786;2023-03-30T15:20:41;13.95;60.77
67759;SHT31;54562;47.620;18.786;2023-03-30T15:23:49;13.94;60.97
67759;SHT31;54562;47.620;18.786;2023-03-30T15:27:01;13.92;61.06
67759;SHT31;54562;47.620;18.786;2023-03-30T15:30:18;13.91;61.00
67759;SHT31;54562;47.620;18.786;2023-03-30T15:33:34;13.90;61.18
67759;SHT31;54562;47.620;18.786;2023-03-30T15:36:51;13.88;61.75
67759;SHT31;54562;47.620;18.786;2023-03-30T15:40:00;13.84;62.74
67759;SHT31;54562;47.620;18.786;2023-03-30T15:43:29;13.77;63.36
67759;SHT31;54562;47.620;18.786;2023-03-30T15:46:55;13.67;64.42
67759;SHT31;54562;47.620;18.786;2023-03-30T15:50:09;13.52;64.56
67759;SHT31;54562;47.620;18.786;2023-03-30T15:53:27;13.40;65.43
67759;SHT31;54562;47.620;18.786;2023-03-30T15:56:47;13.26;66.35
67759;SHT31;54562;47.620;18.786;2023-03-30T16:00:09;13.12;67.65
67759;SHT31;54562;47.620;18.786;2023-03-30T16:03:31;12.94;68.88
67759;SHT31;54562;47.620;18.786;2023-03-30T16:06:43;12.73;70.01
67759;SHT31;54562;47.620;18.786;2023-03-30T16:09:52;12.53;71.26
67759;SHT31;54562;47.620;18.786;2023-03-30T16:13:00;12.33;71.67
67759;SHT31;54562;47.620;18.786;2023-03-30T16:16:09;12.14;72.06
67759;SHT31;54562;47.620;18.786;2023-03-30T16:19:21;11.98;72.42
67759;SHT31;54562;47.620;18.786;2023-03-30T16:22:29;11.83;72.96
67759;SHT31;54562;47.620;18.786;2023-03-30T16:25:38;11.72;73.42
67759;SHT31;54562;47.620;18.786;2023-03-30T16:28:48;11.61;73.93
67759;SHT31;54562;47.620;18.786;2023-03-30T16:31:59;11.53;74.34
67759;SHT31;54562;47.620;18.786;2023-03-30T16:35:07;11.45;74.98
67759;SHT31;54562;47.620;18.786;2023-03-30T16:38:15;11.38;75.54
67759;SHT31;54562;47.620;18.786;2023-03-30T16:41:23;11.32;75.97
67759;SHT31;54562;47.620;18.786;2023-03-30T16:44:32;11.29;76.32
67759;SHT31;54562;47.620;18.786;2023-03-30T16:47:40;11.26;76.49
67759;SHT31;54562;47.620;18.786;2023-03-30T16:50:51;11.24;76.61
67759;SHT31;54562;47.620;18.786;2023-03-30T16:54:00;11.20;76.85
67759;SHT31;54562;47.620;18.786;2023-03-30T16:57:21;11.17;77.13
67759;SHT31;54562;47.620;18.786;2023-03-30T17:00:31;11.14;77.27
67759;SHT31;54562;47.620;18.786;2023-03-30T17:03:45;11.11;77.43
67759;SHT31;54562;47.620;18.786;2023-03-30T17:06:53;11.09;77.59
67759;SHT31;54562;47.620;18.786;2023-03-30T17:10:04;11.04;77.75
67759;SHT31;54562;47.620;18.786;2023-03-30T17:13:27;10.99;78.03
67759;SHT31;54562;47.620;18.786;2023-03-30T17:16:36;10.95;78.35
67759;SHT31;54562;47.620;18.786;2023-03-30T17:19:45;10.90;78.56
67759;SHT31;54562;47.620;18.786;2023-03-30T17:22:53;10.88;78.76
67759;SHT31;54562;47.620;18.786;2023-03-30T17:26:01;10.85;79.01
67759;SHT31;54562;47.620;18.786;2023-03-30T17:29:09;10.83;79.22
67759;SHT31;54562;47.620;18.786;2023-03-30T17:32:18;10.80;79.34
67759;SHT31;54562;47.620;18.786;2023-03-30T17:35:26;10.77;79.53
67759;SHT31;54562;47.620;18.786;2023-03-30T17:38:34;10.76;79.58
67759;SHT31;54562;47.620;18.786;2023-03-30T17:41:45;10.76;79.63
67759;SHT31;54562;47.620;18.786;2023-03-30T17:44:54;10.75;79.77
67759;SHT31;54562;47.620;18.786;2023-03-30T17:48:02;10.74;79.90
67759;SHT31;54562;47.620;18.786;2023-03-30T17:51:16;10.75;79.93
67759;SHT31;54562;47.620;18.786;2023-03-30T17:54:25;10.74;79.92
67759;SHT31;54562;47.620;18.786;2023-03-30T17:57:33;10.75;79.77
67759;SHT31;54562;47.620;18.786;2023-03-30T18:00:41;10.75;79.67
67759;SHT31;54562;47.620;18.786;2023-03-30T18:03:50;10.76;79.47
67759;SHT31;54562;47.620;18.786;2023-03-30T18:06:59;10.76;79.42
67759;SHT31;54562;47.620;18.786;2023-03-30T18:10:12;10.75;79.39
67759;SHT31;54562;47.620;18.786;2023-03-30T18:13:24;10.75;79.28
67759;SHT31;54562;47.620;18.786;2023-03-30T18:16:34;10.76;79.04
67759;SHT31;54562;47.620;18.786;2023-03-30T18:19:48;10.77;79.00
67759;SHT31;54562;47.620;18.786;2023-03-30T18:22:56;10.79;79.00
67759;SHT31;54562;47.620;18.786;2023-03-30T18:26:08;10.79;78.98
67759;SHT31;54562;47.620;18.786;2023-03-30T18:29:18;10.80;78.95
67759;SHT31;54562;47.620;18.786;2023-03-30T18:32:28;10.79;79.09
67759;SHT31;54562;47.620;18.786;2023-03-30T18:35:50;10.78;79.35
67759;SHT31;54562;47.620;18.786;2023-03-30T18:39:01;10.77;79.65
67759;SHT31;54562;47.620;18.786;2023-03-30T18:42:10;10.75;79.90
67759;SHT31;54562;47.620;18.786;2023-03-30T18:45:19;10.72;80.17
67759;SHT31;54562;47.620;18.786;2023-03-30T18:48:32;10.70;80.30
67759;SHT31;54562;47.620;18.786;2023-03-30T18:51:40;10.68;80.43
67759;SHT31;54562;47.620;18.786;2023-03-30T18:54:49;10.64;80.78
67759;SHT31;54562;47.620;18.786;2023-03-30T18:57:57;10.61;80.82
67759;SHT31;54562;47.620;18.786;2023-03-30T19:01:08;10.59;80.87
67759;SHT31;54562;47.620;18.786;2023-03-30T19:04:18;10.59;80.88
67759;SHT31;54562;47.620;18.786;2023-03-30T19:07:26;10.58;80.96
67759;SHT31;54562;47.620;18.786;2023-03-30T19:10:36;10.54;81.16
67759;SHT31;54562;47.620;18.786;2023-03-30T19:13:47;10.49;81.28
67759;SHT31;54562;47.620;18.786;2023-03-30T19:16:55;10.45;81.48
67759;SHT31;54562;47.620;18.786;2023-03-30T19:20:04;10.38;81.66
67759;SHT31;54562;47.620;18.786;2023-03-30T19:23:15;10.31;81.91
67759;SHT31;54562;47.620;18.786;2023-03-30T19:26:25;10.24;82.10
67759;SHT31;54562;47.620;18.786;2023-03-30T19:29:33;10.20;82.08
67759;SHT31;54562;47.620;18.786;2023-03-30T19:32:42;10.19;82.08
67759;SHT31;54562;47.620;18.786;2023-03-30T19:35:52;10.18;82.07
67759;SHT31;54562;47.620;18.786;2023-03-30T19:39:00;10.17;81.91
67759;SHT31;54562;47.620;18.786;2023-03-30T19:42:10;10.18;81.97
67759;SHT31;54562;47.620;18.786;2023-03-30T19:45:19;10.19;81.98
67759;SHT31;54562;47.620;18.786;2023-03-30T19:48:29;10.20;82.03
67759;SHT31;54562;47.620;18.786;2023-03-30T19:51:38;10.21;82.03
67759;SHT31;54562;47.620;18.786;2023-03-30T19:54:46;10.23;82.07
67759;SHT31;54562;47.620;18.786;2023-03-30T19:57:55;10.24;82.13
67759;SHT31;54562;47.620;18.786;2023-03-30T20:01:03;10.25;82.22
67759;SHT31;54562;47.620;18.786;2023-03-30T20:04:13;10.28;82.32
67759;SHT31;54562;47.620;18.786;2023-03-30T20:07:21;10.31;82.28
67759;SHT31;54562;47.620;18.786;2023-03-30T20:10:29;10.34;82.25
67759;SHT31;54562;47.620;18.786;2023-03-30T20:13:37;10.36;82.34
67759;SHT31;54562;47.620;18.786;2023-03-30T20:16:48;10.36;82.47
67759;SHT31;54562;47.620;18.786;2023-03-30T20:19:57;10.37;82.57